Time;durP1;ratioP1;P1;durP2;ratioP2;P2;SDS_P1;SDS_P2;PMS_P1;PMS_P2;Temp;Humidity;BMP_temperature;BMP_pressure;BME280_temperature;BME280_humidity;BME280_pressure;Samples;Min_cycle;Max_cycle;Signal;HPM_P1;HPM_P2
2023/09/24 00:01:21;;;;;;;1999.90;999.90;;;13.10;99.90;;;;;;5052698;28;20515;-73
2023/09/24 00:03:47;;;;;;;1999.90;999.90;;;13.10;99.90;;;;;;5052759;28;20456;-77
2023/09/24 00:06:12;;;;;;;1999.90;999.90;;;13.10;99.90;;;;;;5048115;28;20056;-77
2023/09/24 00:08:38;;;;;;;1999.90;999.90;;;13.00;99.90;;;;;;5048525;28;20116;-77
2023/09/24 00:11:04;;;;;;;1999.90;999.90;;;13.00;99.90;;;;;;5036978;28;20502;-74
2023/09/24 00:13:34;;;;;;;1999.90;999.90;;;12.90;99.90;;;;;;5052727;28;20159;-77
2023/09/24 00:16:06;;;;;;;1999.90;999.90;;;12.90;99.90;;;;;;5051417;28;20052;-77
2023/09/24 00:18:33;;;;;;;1999.90;999.90;;;12.90;99.90;;;;;;5052466;28;20603;-77
2023/09/24 00:20:59;;;;;;;1999.90;999.90;;;12.80;99.90;;;;;;5051444;28;20025;-77
2023/09/24 00:23:25;;;;;;;1999.90;999.90;;;12.80;99.90;;;;;;5053125;28;20032;-77
2023/09/24 00:25:51;;;;;;;1999.90;999.90;;;12.80;99.90;;;;;;5043706;28;20049;-73
2023/09/24 00:28:16;;;;;;;1999.90;999.90;;;12.80;99.90;;;;;;5032825;28;20029;-73
2023/09/24 00:30:43;;;;;;;1999.90;999.90;;;12.90;99.90;;;;;;5032929;28;20053;-76
2023/09/24 00:33:09;;;;;;;1999.90;999.90;;;12.80;99.90;;;;;;5032720;28;20458;-77
2023/09/24 00:35:35;;;;;;;1999.90;999.90;;;12.90;99.90;;;;;;5032811;28;20107;-74
2023/09/24 00:38:01;;;;;;;1999.90;999.90;;;12.90;99.90;;;;;;5032689;28;20480;-74
2023/09/24 00:40:26;;;;;;;1999.90;999.90;;;12.80;99.90;;;;;;5043732;28;20025;-74
2023/09/24 00:42:53;;;;;;;1999.90;999.90;;;12.80;99.90;;;;;;5056969;28;20021;-77
2023/09/24 00:45:18;;;;;;;1999.90;999.90;;;12.80;99.90;;;;;;5056578;28;20048;-74
2023/09/24 00:47:46;;;;;;;1999.90;999.90;;;12.80;99.90;;;;;;5056479;28;20059;-77
2023/09/24 00:50:13;;;;;;;1999.90;999.90;;;12.80;99.90;;;;;;5056564;28;20037;-74
2023/09/24 00:52:41;;;;;;;1999.90;999.90;;;12.80;99.90;;;;;;5056513;28;20014;-76
2023/09/24 00:55:08;;;;;;;1999.90;999.90;;;12.80;99.90;;;;;;5056840;28;20033;-77
2023/09/24 00:57:35;;;;;;;1999.90;999.90;;;12.70;99.90;;;;;;5056609;28;20425;-77
2023/09/24 01:00:11;;;;;;;1999.90;999.90;;;12.70;99.90;;;;;;5056443;28;20096;-77
2023/09/24 01:02:37;;;;;;;1999.90;999.90;;;12.70;99.90;;;;;;5056181;28;20025;-74
2023/09/24 01:05:04;;;;;;;1999.90;999.90;;;12.70;99.90;;;;;;5055192;28;20467;-73
2023/09/24 01:07:31;;;;;;;1999.90;999.90;;;12.70;99.90;;;;;;5056343;28;20033;-73
2023/09/24 01:09:58;;;;;;;1999.90;999.90;;;12.70;99.90;;;;;;5056310;28;20021;-77
2023/09/24 01:12:29;;;;;;;1999.90;999.90;;;12.70;99.90;;;;;;5055973;28;20106;-77
2023/09/24 01:14:57;;;;;;;1999.90;999.90;;;12.60;99.90;;;;;;5056107;28;20032;-77
2023/09/24 01:17:23;;;;;;;1999.90;999.90;;;12.60;99.90;;;;;;5055789;28;20024;-73
2023/09/24 01:19:52;;;;;;;1999.90;999.90;;;12.60;99.90;;;;;;5054649;28;20033;-76
2023/09/24 01:22:18;;;;;;;1999.90;999.90;;;12.60;99.90;;;;;;5055918;28;20017;-77
2023/09/24 01:24:43;;;;;;;1999.90;999.90;;;12.60;99.90;;;;;;5055737;28;20416;-73
2023/09/24 01:27:09;;;;;;;1999.90;999.90;;;12.60;99.90;;;;;;5036311;28;20484;-77
2023/09/24 01:29:36;;;;;;;1999.90;999.90;;;12.60;99.90;;;;;;5035691;28;20037;-73
2023/09/24 01:32:04;;;;;;;1999.90;999.90;;;12.60;99.90;;;;;;5035870;28;20025;-74
2023/09/24 01:34:29;;;;;;;1999.90;999.90;;;12.60;99.90;;;;;;5036019;28;20032;-77
2023/09/24 01:36:55;;;;;;;1999.90;999.90;;;12.50;99.90;;;;;;5036004;28;20100;-76
2023/09/24 01:39:26;;;;;;;1999.90;999.90;;;12.50;99.90;;;;;;5035759;28;20455;-77
2023/09/24 01:41:51;;;;;;;1999.90;999.90;;;12.60;99.90;;;;;;5054105;28;20108;-73
2023/09/24 01:44:21;;;;;;;1999.90;999.90;;;12.60;99.90;;;;;;5055846;28;20057;-77
2023/09/24 01:46:47;;;;;;;1999.90;999.90;;;12.60;99.90;;;;;;5055635;28;20186;-73
2023/09/24 01:49:13;;;;;;;1999.90;999.90;;;12.60;99.90;;;;;;5055610;28;20077;-77
2023/09/24 01:51:39;;;;;;;1999.90;999.90;;;12.50;99.90;;;;;;5055413;28;20056;-74
2023/09/24 01:54:05;;;;;;;1999.90;999.90;;;12.50;99.90;;;;;;5054503;28;20025;-77
2023/09/24 01:56:30;;;;;;;1999.90;999.90;;;12.60;99.90;;;;;;5055238;28;20037;-74
2023/09/24 01:58:56;;;;;;;1999.90;999.90;;;12.60;99.90;;;;;;5055447;28;20032;-74
2023/09/24 02:01:22;;;;;;;1999.90;999.90;;;12.60;99.90;;;;;;5055109;28;20404;-77
2023/09/24 02:03:48;;;;;;;1999.90;999.90;;;12.50;99.90;;;;;;5055138;28;20035;-76
2023/09/24 02:06:15;;;;;;;1999.90;999.90;;;12.50;99.90;;;;;;5055086;28;20100;-77
2023/09/24 02:08:40;;;;;;;1999.90;999.90;;;12.50;99.90;;;;;;5054352;28;20037;-73
2023/09/24 02:11:06;;;;;;;1999.90;999.90;;;12.50;99.90;;;;;;5055189;28;20032;-73
2023/09/24 02:13:32;;;;;;;1999.90;999.90;;;12.50;99.90;;;;;;5054987;28;20032;-77
2023/09/24 02:16:01;;;;;;;1999.90;999.90;;;12.40;99.90;;;;;;5054617;28;20036;-74
2023/09/24 02:18:32;;;;;;;1999.90;999.90;;;12.50;99.90;;;;;;5054808;28;20032;-77
2023/09/24 02:20:59;;;;;;;1999.90;999.90;;;12.40;99.90;;;;;;5053488;28;20021;-73
2023/09/24 02:23:25;;;;;;;1999.90;999.90;;;12.40;99.90;;;;;;5053551;28;20108;-76
2023/09/24 02:25:51;;;;;;;1999.90;999.90;;;12.40;99.90;;;;;;5054409;28;20045;-74
2023/09/24 02:28:18;;;;;;;1999.90;999.90;;;12.40;99.90;;;;;;5055087;28;20033;-77
2023/09/24 02:30:45;;;;;;;1999.90;999.90;;;12.30;99.90;;;;;;5054965;28;20044;-77
2023/09/24 02:33:10;;;;;;;1999.90;999.90;;;12.30;99.90;;;;;;5054702;28;20033;-77
2023/09/24 02:35:36;;;;;;;1999.90;999.90;;;12.40;99.90;;;;;;5054993;28;20036;-73
2023/09/24 02:38:04;;;;;;;1999.90;999.90;;;12.30;99.90;;;;;;5054664;28;20499;-77
2023/09/24 02:40:30;;;;;;;1999.90;999.90;;;12.30;99.90;;;;;;5054266;28;20017;-77
2023/09/24 02:43:01;;;;;;;1999.90;999.90;;;12.30;99.90;;;;;;5054469;28;20032;-77
2023/09/24 02:45:29;;;;;;;1999.90;999.90;;;12.30;99.90;;;;;;5054700;28;20021;-77
2023/09/24 02:47:55;;;;;;;1999.90;999.90;;;12.30;99.90;;;;;;5054451;28;20058;-73
2023/09/24 02:50:23;;;;;;;1999.90;999.90;;;12.30;99.90;;;;;;5054317;28;20032;-74
2023/09/24 02:52:54;;;;;;;1999.90;999.90;;;12.30;99.90;;;;;;5054296;28;20074;-76
2023/09/24 02:55:22;;;;;;;1999.90;999.90;;;12.30;99.90;;;;;;5052937;28;20611;-77
2023/09/24 02:57:51;;;;;;;1999.90;999.90;;;12.40;99.90;;;;;;5054340;28;20083;-76
2023/09/24 03:00:19;;;;;;;1999.90;999.90;;;12.40;99.90;;;;;;5053941;28;20032;-73
2023/09/24 03:02:46;;;;;;;1999.90;999.90;;;12.40;99.90;;;;;;5052618;28;20407;-74
2023/09/24 03:05:15;;;;;;;1999.90;999.90;;;12.40;99.90;;;;;;5053581;28;20055;-77
2023/09/24 03:07:42;;;;;;;1999.90;999.90;;;12.40;99.90;;;;;;5054115;28;20096;-77
2023/09/24 03:10:13;;;;;;;1999.90;999.90;;;12.40;99.90;;;;;;5053746;28;20021;-77
2023/09/24 03:12:43;;;;;;;1999.90;999.90;;;12.40;99.90;;;;;;5053337;28;20021;-74
2023/09/24 03:15:12;;;;;;;1999.90;999.90;;;12.40;99.90;;;;;;5054051;28;20045;-74
2023/09/24 03:17:42;;;;;;;1999.90;999.90;;;12.40;99.90;;;;;;5052652;28;20399;-73
2023/09/24 03:20:15;;;;;;;1999.90;999.90;;;12.40;99.90;;;;;;5053698;28;20029;-77
2023/09/24 03:22:48;;;;;;;1999.90;999.90;;;12.40;99.90;;;;;;5053785;28;20029;-77
2023/09/24 03:25:18;;;;;;;1999.90;999.90;;;12.30;99.90;;;;;;5050088;28;20124;-77
2023/09/24 03:27:51;;;;;;;1999.90;999.90;;;12.30;99.90;;;;;;5033906;28;20523;-74
2023/09/24 03:30:18;;;;;;;1999.90;999.90;;;12.20;99.90;;;;;;5034093;28;20029;-74
2023/09/24 03:32:45;;;;;;;1999.90;999.90;;;12.20;99.90;;;;;;5045055;28;20083;-74
2023/09/24 03:35:11;;;;;;;1999.90;999.90;;;12.10;99.90;;;;;;5050846;28;20115;-77
2023/09/24 03:37:43;;;;;;;1999.90;999.90;;;12.20;99.90;;;;;;5033709;28;20488;-77
2023/09/24 03:40:11;;;;;;;1999.90;999.90;;;12.20;99.90;;;;;;5037120;28;20362;-73
2023/09/24 03:42:38;;;;;;;1999.90;999.90;;;12.20;99.90;;;;;;5053922;28;20262;-74
2023/09/24 03:45:06;;;;;;;1999.90;999.90;;;12.20;99.90;;;;;;5053082;28;20021;-77
2023/09/24 03:47:32;;;;;;;1999.90;999.90;;;12.20;99.90;;;;;;5051934;28;20029;-77
2023/09/24 03:49:57;;;;;;;1999.90;999.90;;;12.10;99.90;;;;;;5052869;28;20089;-76
2023/09/24 03:52:23;;;;;;;1999.90;999.90;;;12.10;99.90;;;;;;5053188;28;20029;-73
2023/09/24 03:54:48;;;;;;;1999.90;999.90;;;12.00;99.90;;;;;;5053285;28;20028;-73
2023/09/24 03:57:14;;;;;;;1999.90;999.90;;;12.10;99.90;;;;;;5052709;28;20075;-76
2023/09/24 03:59:39;;;;;;;1999.90;999.90;;;12.00;99.90;;;;;;5052537;28;20099;-77
2023/09/24 04:02:07;;;;;;;1999.90;999.90;;;12.00;99.90;;;;;;5052950;28;20013;-77
2023/09/24 04:04:37;;;;;;;1999.90;999.90;;;11.90;99.90;;;;;;5048380;28;20362;-76
2023/09/24 04:07:04;;;;;;;1999.90;999.90;;;11.90;99.90;;;;;;5033136;28;20451;-73
2023/09/24 04:09:33;;;;;;;1999.90;999.90;;;11.90;99.90;;;;;;5032813;28;20027;-76
2023/09/24 04:12:00;;;;;;;1999.90;999.90;;;11.90;99.90;;;;;;5046295;28;20027;-77
2023/09/24 04:14:25;;;;;;;1999.90;999.90;;;11.90;99.90;;;;;;5052940;28;20033;-76
2023/09/24 04:16:51;;;;;;;1999.90;999.90;;;11.90;99.90;;;;;;5052441;28;20368;-77
2023/09/24 04:19:17;;;;;;;1999.90;999.90;;;11.90;99.90;;;;;;5052921;28;20025;-73
2023/09/24 04:21:45;;;;;;;1999.90;999.90;;;11.80;99.90;;;;;;5052984;28;20055;-73
2023/09/24 04:24:10;;;;;;;1999.90;999.90;;;11.80;99.90;;;;;;5052558;28;20069;-77
2023/09/24 04:26:36;;;;;;;1999.90;999.90;;;11.80;99.90;;;;;;5052882;28;20059;-74
2023/09/24 04:29:02;;;;;;;1999.90;999.90;;;11.80;99.90;;;;;;5052924;28;20061;-77
2023/09/24 04:31:27;;;;;;;1999.90;999.90;;;11.80;99.90;;;;;;5052968;28;20055;-73
2023/09/24 04:33:53;;;;;;;1999.90;999.90;;;11.80;99.90;;;;;;5051236;28;20033;-73
2023/09/24 04:36:19;;;;;;;1999.90;999.90;;;11.80;99.90;;;;;;5051407;28;20075;-74
2023/09/24 04:38:46;;;;;;;1999.90;999.90;;;11.80;99.90;;;;;;5052710;28;20036;-73
2023/09/24 04:41:12;;;;;;;1999.90;999.90;;;11.80;99.90;;;;;;5052659;28;20013;-77
2023/09/24 04:43:38;;;;;;;1999.90;999.90;;;11.70;99.90;;;;;;5052785;28;20021;-77
2023/09/24 04:46:07;;;;;;;1999.90;999.90;;;11.70;99.90;;;;;;5052573;28;20108;-74
2023/09/24 04:48:34;;;;;;;1999.90;999.90;;;11.70;99.90;;;;;;5052830;28;20029;-73
2023/09/24 04:50:59;;;;;;;1999.90;999.90;;;11.80;99.90;;;;;;5052512;28;20104;-77
2023/09/24 04:53:25;;;;;;;1999.90;999.90;;;11.70;99.90;;;;;;5052781;28;20103;-73
2023/09/24 04:55:51;;;;;;;1999.90;999.90;;;11.70;99.90;;;;;;5052536;28;20028;-76
2023/09/24 04:58:17;;;;;;;1999.90;999.90;;;11.70;99.90;;;;;;5052325;28;20071;-73
2023/09/24 05:00:42;;;;;;;1999.90;999.90;;;11.70;99.90;;;;;;5052539;28;20025;-73
2023/09/24 05:03:08;;;;;;;1999.90;999.90;;;11.70;99.90;;;;;;5050490;28;20043;-77
2023/09/24 05:05:34;;;;;;;1999.90;999.90;;;11.70;99.90;;;;;;5051985;28;20017;-77
2023/09/24 05:08:03;;;;;;;1999.90;999.90;;;11.60;99.90;;;;;;5052585;28;20021;-77
2023/09/24 05:10:28;;;;;;;1999.90;999.90;;;11.70;99.90;;;;;;5052260;28;20025;-73
2023/09/24 05:12:54;;;;;;;1999.90;999.90;;;11.70;99.90;;;;;;5052512;28;20116;-77
2023/09/24 05:15:19;;;;;;;1999.90;999.90;;;11.70;99.90;;;;;;5051022;28;20602;-74
2023/09/24 05:17:46;;;;;;;1999.90;999.90;;;11.70;99.90;;;;;;5052624;28;20104;-76
2023/09/24 05:20:13;;;;;;;1999.90;999.90;;;11.60;99.90;;;;;;5052307;28;20070;-77
2023/09/24 05:22:39;;;;;;;1999.90;999.90;;;11.70;99.90;;;;;;5052317;28;20024;-77
2023/09/24 05:25:05;;;;;;;1999.90;999.90;;;11.60;99.90;;;;;;5051860;28;20053;-73
2023/09/24 05:27:33;;;;;;;1999.90;999.90;;;11.70;99.90;;;;;;5051417;28;20171;-73
2023/09/24 05:29:58;;;;;;;1999.90;999.90;;;11.70;99.90;;;;;;5056227;28;20043;-77
2023/09/24 05:32:24;;;;;;;1999.90;999.90;;;11.80;99.90;;;;;;5055861;28;20515;-77
2023/09/24 05:34:54;;;;;;;1999.90;999.90;;;11.80;99.90;;;;;;5055671;28;20124;-77
2023/09/24 05:37:20;;;;;;;1999.90;999.90;;;11.80;99.90;;;;;;5054550;28;20028;-73
2023/09/24 05:39:45;;;;;;;1999.90;999.90;;;11.80;99.90;;;;;;5055677;28;20033;-73
2023/09/24 05:42:11;;;;;;;1999.90;999.90;;;11.80;99.90;;;;;;5055866;28;20104;-77
2023/09/24 05:44:36;;;;;;;1999.90;999.90;;;11.80;99.90;;;;;;5055907;28;20029;-77
2023/09/24 05:47:06;;;;;;;1999.90;999.90;;;11.80;99.90;;;;;;5054432;28;20063;-77
2023/09/24 05:49:32;;;;;;;1999.90;999.90;;;11.90;99.90;;;;;;5053794;28;20079;-74
2023/09/24 05:51:58;;;;;;;1999.90;999.90;;;11.90;99.90;;;;;;5055809;28;20025;-74
2023/09/24 05:54:24;;;;;;;1999.90;999.90;;;11.90;99.90;;;;;;5054204;28;20094;-77
2023/09/24 05:56:49;;;;;;;1999.90;999.90;;;11.90;99.90;;;;;;5055318;28;20036;-73
2023/09/24 05:59:15;;;;;;;1999.90;999.90;;;11.90;99.90;;;;;;5055684;28;20029;-74
2023/09/24 06:01:42;;;;;;;1999.90;999.90;;;11.90;99.90;;;;;;5053869;28;20048;-77
2023/09/24 06:04:07;;;;;;;1999.90;999.90;;;11.80;99.90;;;;;;5054994;28;20021;-74
2023/09/24 06:06:33;;;;;;;1999.90;999.90;;;11.80;99.90;;;;;;5035459;28;20037;-74
2023/09/24 06:08:59;;;;;;;1999.90;999.90;;;11.80;99.90;;;;;;5035219;28;20448;-76
2023/09/24 06:11:24;;;;;;;1999.90;999.90;;;11.80;99.90;;;;;;5043550;28;20036;-74
2023/09/24 06:13:50;;;;;;;1999.90;999.90;;;11.70;99.90;;;;;;5055032;28;20033;-77
2023/09/24 06:16:15;;;;;;;1999.90;999.90;;;11.70;99.90;;;;;;5054985;28;20033;-74
2023/09/24 06:18:41;;;;;;;1999.90;999.90;;;11.80;99.90;;;;;;5055121;28;20047;-73
2023/09/24 06:21:07;;;;;;;1999.90;999.90;;;11.80;99.90;;;;;;5054893;28;20032;-77
2023/09/24 06:23:34;;;;;;;1999.90;999.90;;;11.70;99.90;;;;;;5054858;28;20028;-77
2023/09/24 06:26:00;;;;;;;1999.90;999.90;;;11.80;99.90;;;;;;5044563;28;20425;-77
2023/09/24 06:28:27;;;;;;;1999.90;999.90;;;11.80;99.90;;;;;;5034968;28;20543;-74
2023/09/24 06:31:05;;;;;;;1999.90;999.90;;;11.80;99.90;;;;;;5033518;28;20484;-73
2023/09/24 06:33:31;;;;;;;1999.90;999.90;;;11.90;99.90;;;;;;5033612;28;20025;-77
2023/09/24 06:35:57;;;;;;;1999.90;999.90;;;11.90;99.90;;;;;;5033340;28;20092;-73
2023/09/24 06:38:23;;;;;;;1999.90;999.90;;;12.00;99.90;;;;;;5034257;28;20040;-77
2023/09/24 06:41:02;;;;;;;1999.90;999.90;;;12.10;99.90;;;;;;5038473;28;20017;-76
2023/09/24 06:43:28;;;;;;;1999.90;999.90;;;12.20;99.90;;;;;;5055040;28;20025;-73
2023/09/24 06:45:55;;;;;;;1999.90;999.90;;;12.30;99.90;;;;;;5054718;28;20021;-76
2023/09/24 06:48:21;;;;;;;1999.90;999.90;;;12.40;99.90;;;;;;5054576;28;20090;-77
2023/09/24 06:50:47;;;;;;;1999.90;999.90;;;12.50;99.90;;;;;;5052924;28;20028;-77
2023/09/24 06:53:12;;;;;;;1999.90;999.90;;;12.60;99.90;;;;;;5052914;28;20033;-77
2023/09/24 06:55:42;;;;;;;1999.90;999.90;;;12.70;99.90;;;;;;5053313;28;20495;-73
2023/09/24 06:58:08;;;;;;;1999.90;999.90;;;12.80;99.90;;;;;;5054246;28;20583;-73
2023/09/24 07:00:34;;;;;;;1999.90;999.90;;;12.90;99.90;;;;;;5052837;28;20111;-77
2023/09/24 07:02:59;;;;;;;1999.90;999.90;;;13.00;99.90;;;;;;5054078;28;20033;-76
2023/09/24 07:05:26;;;;;;;1999.90;999.90;;;13.10;99.90;;;;;;5048378;28;20084;-77
2023/09/24 07:07:52;;;;;;;1999.90;999.90;;;13.30;99.90;;;;;;5034021;28;20032;-73
2023/09/24 07:10:18;;;;;;;1999.90;999.90;;;13.40;99.90;;;;;;5033924;28;20489;-73
2023/09/24 07:12:44;;;;;;;1999.90;999.90;;;13.50;99.90;;;;;;5052874;28;20024;-73
2023/09/24 07:15:11;;;;;;;1999.90;999.90;;;13.60;99.90;;;;;;5054078;28;20032;-77
2023/09/24 07:17:37;;;;;;;1999.90;999.90;;;13.70;99.90;;;;;;5053640;28;20029;-77
2023/09/24 07:20:04;;;;;;;1999.90;999.90;;;13.90;99.90;;;;;;5053450;28;20473;-73
2023/09/24 07:22:30;;;;;;;1999.90;999.90;;;14.00;99.90;;;;;;5053955;28;20027;-73
2023/09/24 07:24:56;;;;;;;1999.90;999.90;;;14.30;99.90;;;;;;5052139;28;20132;-77
2023/09/24 07:27:22;;;;;;;1999.90;999.90;;;14.40;99.90;;;;;;5032279;28;20108;-77
2023/09/24 07:29:48;;;;;;;1999.90;999.90;;;14.50;99.90;;;;;;5032691;28;20565;-73
2023/09/24 07:32:14;;;;;;;1999.90;999.90;;;15.20;99.90;;;;;;5034001;28;20080;-77
2023/09/24 07:34:40;;;;;;;1999.90;999.90;;;16.20;99.90;;;;;;5033540;28;20048;-73
2023/09/24 07:37:08;;;;;;;1999.90;999.90;;;16.00;99.90;;;;;;5034038;28;20021;-73
2023/09/24 07:39:34;;;;;;;1999.90;999.90;;;15.70;99.90;;;;;;5032315;28;20493;-77
2023/09/24 07:42:00;;;;;;;1999.90;999.90;;;15.60;99.90;;;;;;5045877;28;20024;-77
2023/09/24 07:44:26;;;;;;;1999.90;999.90;;;15.60;99.90;;;;;;5053791;28;20044;-77
2023/09/24 07:46:54;;;;;;;1999.90;999.90;;;15.60;99.90;;;;;;5051845;28;20062;-73
2023/09/24 07:49:19;;;;;;;1999.90;999.90;;;15.70;99.90;;;;;;5053489;28;20033;-74
2023/09/24 07:51:45;;;;;;;1999.90;999.90;;;15.70;99.90;;;;;;5051750;28;20376;-77
2023/09/24 07:54:11;;;;;;;1999.90;999.90;;;16.00;99.90;;;;;;5053167;28;20097;-77
2023/09/24 07:56:42;;;;;;;1999.90;999.90;;;16.70;99.90;;;;;;5051961;28;20025;-78
2023/09/24 07:59:08;;;;;;;1999.90;999.90;;;19.50;99.90;;;;;;5053468;28;20419;-73
2023/09/24 08:01:35;;;;;;;1999.90;999.90;;;20.80;99.90;;;;;;5053149;28;20070;-77
2023/09/24 08:04:00;;;;;;;1999.90;999.90;;;20.70;99.90;;;;;;5051335;28;20039;-77
2023/09/24 08:06:28;;;;;;;1999.90;999.90;;;19.70;99.90;;;;;;5052910;28;20025;-77
2023/09/24 08:08:54;;;;;;;1999.90;999.90;;;19.60;99.90;;;;;;5052925;28;20036;-75
2023/09/24 08:11:20;;;;;;;1999.90;999.90;;;19.70;99.90;;;;;;5053251;28;20096;-77
2023/09/24 08:13:46;;;;;;;1999.90;999.90;;;20.80;99.90;;;;;;5053268;28;20056;-77
2023/09/24 08:16:12;;;;;;;1999.90;999.90;;;19.20;99.90;;;;;;5052530;28;20482;-74
2023/09/24 08:18:38;;;;;;;1999.90;999.90;;;18.20;99.90;;;;;;5053063;28;20460;-77
2023/09/24 08:21:04;;;;;;;1999.90;999.90;;;19.00;99.90;;;;;;5052700;28;20017;-74
2023/09/24 08:23:29;;;;;;;1999.90;999.90;;;20.40;99.90;;;;;;5053119;28;20025;-77
2023/09/24 08:25:55;;;;;;;1999.90;999.90;;;20.70;99.90;;;;;;5043324;28;20416;-74
2023/09/24 08:28:20;;;;;;;1999.90;999.90;;;20.70;99.90;;;;;;5032829;28;20079;-74
2023/09/24 08:30:46;;;;;;;1999.90;999.90;;;21.10;99.90;;;;;;5038116;28;20025;-75
2023/09/24 08:33:12;;;;;;;1999.90;999.90;;;21.20;99.90;;;;;;5051220;28;20389;-77
2023/09/24 08:35:39;;;;;;;1999.90;999.90;;;21.90;99.90;;;;;;5052611;28;20024;-78
2023/09/24 08:38:05;;;;;;;1999.90;999.90;;;23.40;99.90;;;;;;5051489;28;20033;-75
2023/09/24 08:40:31;;;;;;;1999.90;999.90;;;24.70;99.90;;;;;;5052589;28;20040;-74
2023/09/24 08:42:57;;;;;;;1999.90;999.90;;;24.70;99.90;;;;;;5052637;28;20104;-78
2023/09/24 08:45:26;;;;;;;1999.90;999.90;;;24.30;99.90;;;;;;5052513;28;20025;-78
2023/09/24 08:47:52;;;;;;;1999.90;999.90;;;25.30;99.90;;;;;;5051403;28;20067;-78
2023/09/24 08:50:18;;;;;;;1999.90;999.90;;;26.10;99.90;;;;;;5051338;28;20028;-78
2023/09/24 08:52:45;;;;;;;1999.90;999.90;;;25.70;99.90;;;;;;5052630;28;20116;-75
2023/09/24 08:55:13;;;;;;;1999.90;999.90;;;25.40;99.90;;;;;;5052724;28;20028;-75
2023/09/24 08:57:40;;;;;;;1999.90;999.90;;;26.20;99.90;;;;;;5052104;28;20033;-78
2023/09/24 09:00:09;;;;;;;1999.90;999.90;;;26.30;99.90;;;;;;5052761;28;20017;-78
2023/09/24 09:02:35;;;;;;;1999.90;999.90;;;27.00;99.90;;;;;;5055046;28;20480;-78
2023/09/24 09:05:04;;;;;;;1999.90;999.90;;;27.20;99.90;;;;;;5055853;28;20064;-76
2023/09/24 09:07:30;;;;;;;1999.90;999.90;;;26.70;99.90;;;;;;5054969;28;20029;-75
2023/09/24 09:09:59;;;;;;;1999.90;999.90;;;27.00;99.90;;;;;;5055032;28;20116;-78
2023/09/24 09:12:26;;;;;;;1999.90;999.90;;;27.00;99.90;;;;;;5056245;28;20484;-79
2023/09/24 09:14:52;;;;;;;1999.90;999.90;;;25.70;99.90;;;;;;5056189;28;20436;-77
2023/09/24 09:17:18;;;;;;;1999.90;999.90;;;24.90;99.90;;;;;;5055903;28;20025;-74
2023/09/24 09:19:56;;;;;;;1999.90;999.90;;;24.70;99.90;;;;;;5056123;28;20017;-75
2023/09/24 09:22:27;;;;;;;1999.90;999.90;;;23.20;99.90;;;;;;5056375;28;20024;-75
2023/09/24 09:25:08;;;;;;;1999.90;999.90;;;22.90;99.90;;;;;;5054937;28;20045;-78
2023/09/24 09:27:35;;;;;;;1999.90;999.90;;;23.00;99.90;;;;;;5036409;28;20113;-75
2023/09/24 09:30:13;;;;;;;1999.90;999.90;;;22.70;99.90;;;;;;5034769;28;20120;-74
2023/09/24 09:32:39;;;;;;;1999.90;999.90;;;22.90;99.90;;;;;;5034626;28;20037;-75
2023/09/24 09:35:05;;;;;;;1999.90;999.90;;;22.70;99.90;;;;;;5036052;28;20036;-78
2023/09/24 09:37:31;;;;;;;1999.90;999.90;;;22.00;99.90;;;;;;5036090;28;20083;-74
2023/09/24 09:39:57;;;;;;;1999.90;999.90;;;21.10;99.90;;;;;;5035784;28;20013;-78
2023/09/24 09:42:25;;;;;;;1999.90;999.90;;;20.80;99.90;;;;;;5049924;28;20049;-78
2023/09/24 09:44:54;;;;;;;1999.90;999.90;;;20.80;99.90;;;;;;5055459;28;20044;-74
2023/09/24 09:47:25;;;;;;;1999.90;999.90;;;20.80;99.90;;;;;;5056028;28;20082;-78
2023/09/24 09:49:59;;;;;;;1999.90;999.90;;;20.60;99.90;;;;;;5054430;28;20369;-74
2023/09/24 09:52:32;;;;;;;1999.90;999.90;;;20.50;99.90;;;;;;5055645;28;20116;-77
2023/09/24 09:55:03;;;;;;;1999.90;999.90;;;20.50;99.90;;;;;;5054513;28;20032;-77
2023/09/24 09:57:32;;;;;;;1999.90;999.90;;;20.40;99.90;;;;;;5053971;28;20032;-74
2023/09/24 09:59:59;;;;;;;1999.90;999.90;;;20.40;99.90;;;;;;5055476;28;20020;-77
2023/09/24 10:02:29;;;;;;;1999.90;999.90;;;20.40;99.90;;;;;;5054134;28;20035;-77
2023/09/24 10:04:57;;;;;;;1999.90;999.90;;;20.30;99.90;;;;;;5054936;28;20096;-77
2023/09/24 10:07:24;;;;;;;1999.90;999.90;;;20.40;99.90;;;;;;5055333;28;20511;-77
2023/09/24 10:09:50;;;;;;;1999.90;999.90;;;20.30;99.90;;;;;;5054875;28;20036;-74
2023/09/24 10:12:36;;;;;;;1999.90;999.90;;;20.40;99.90;;;;;;5055533;28;20025;-74
2023/09/24 10:15:34;;;;;;;1999.90;999.90;;;20.70;99.90;;;;;;5054505;28;20029;-77
2023/09/24 10:18:09;;;;;;;1999.90;999.90;;;20.90;99.90;;;;;;5010566;28;20407;-77
2023/09/24 10:20:50;;;;;;;1999.90;999.90;;;21.60;99.90;;;;;;5054981;28;20025;-77
2023/09/24 10:23:31;;;;;;;1999.90;999.90;;;21.20;99.90;;;;;;5053708;28;20073;-76
2023/09/24 10:26:00;;;;;;;1999.90;999.90;;;20.70;99.90;;;;;;5045124;28;20491;-77
2023/09/24 10:28:47;;;;;;;1999.90;999.90;;;20.60;99.90;;;;;;5034933;28;20029;-77
2023/09/24 10:31:13;;;;;;;1999.90;999.90;;;20.70;99.90;;;;;;5034933;28;20029;-77
2023/09/24 10:33:58;;;;;;;1999.90;999.90;;;20.90;99.90;;;;;;5054521;28;20029;-76
2023/09/24 10:36:29;;;;;;;1999.90;999.90;;;20.80;99.90;;;;;;5054537;28;20083;-74
2023/09/24 10:39:13;;;;;;;1999.90;999.90;;;20.70;99.90;;;;;;5053822;28;20056;-77
2023/09/24 10:42:11;;;;;;;1999.90;999.90;;;20.80;99.90;;;;;;5040136;28;20024;-77
2023/09/24 10:44:37;;;;;;;1999.90;999.90;;;20.90;99.90;;;;;;5054708;28;20388;-77
2023/09/24 10:47:25;;;;;;;1999.90;999.90;;;20.90;99.90;;;;;;5054503;28;20020;-77
2023/09/24 10:50:01;;;;;;;1999.90;999.90;;;20.80;99.90;;;;;;5052656;28;20440;-75
2023/09/24 10:52:26;;;;;;;1999.90;999.90;;;20.80;99.90;;;;;;5054202;28;20029;-77
2023/09/24 10:54:52;;;;;;;1999.90;999.90;;;21.00;99.90;;;;;;5054246;28;20091;-76
2023/09/24 10:57:24;;;;;;;1999.90;999.90;;;21.00;99.90;;;;;;5052959;28;20021;-77
2023/09/24 10:59:51;;;;;;;1999.90;999.90;;;20.90;99.90;;;;;;5054549;28;20017;-77
2023/09/24 11:02:18;;;;;;;1999.90;999.90;;;21.10;99.90;;;;;;5054284;28;20547;-74
2023/09/24 11:04:43;;;;;;;1999.90;999.90;;;21.10;99.90;;;;;;5048991;28;20021;-77
2023/09/24 11:07:10;;;;;;;1999.90;999.90;;;21.20;99.90;;;;;;5034331;28;20029;-78
2023/09/24 11:09:36;;;;;;;1999.90;999.90;;;21.20;99.90;;;;;;5034108;28;20405;-77
2023/09/24 11:12:07;;;;;;;1999.90;999.90;;;21.10;99.90;;;;;;5047425;28;20025;-77
2023/09/24 11:14:33;;;;;;;1999.90;999.90;;;21.10;99.90;;;;;;5053812;28;20021;-74
2023/09/24 11:16:59;;;;;;;1999.90;999.90;;;21.30;99.90;;;;;;5033970;28;20029;-74
2023/09/24 11:19:44;;;;;;;1999.90;999.90;;;21.40;99.90;;;;;;5034118;28;20120;-74
2023/09/24 11:22:19;;;;;;;1999.90;999.90;;;21.30;99.90;;;;;;5032572;28;20033;-77
2023/09/24 11:25:03;;;;;;;1999.90;999.90;;;21.40;99.90;;;;;;5033020;28;20050;-77
2023/09/24 11:27:29;;;;;;;1999.90;999.90;;;21.50;99.90;;;;;;5034326;28;20554;-77
2023/09/24 11:29:59;;;;;;;1999.90;999.90;;;21.70;99.90;;;;;;5034122;28;20121;-74
2023/09/24 11:32:27;;;;;;;1999.90;999.90;;;21.80;99.90;;;;;;5033691;28;20406;-77
2023/09/24 11:35:07;;;;;;;1999.90;999.90;;;21.60;99.90;;;;;;5033440;28;20026;-77
2023/09/24 11:37:53;;;;;;;1999.90;999.90;;;21.50;99.90;;;;;;5033744;28;20112;-78
2023/09/24 11:40:29;;;;;;;1999.90;999.90;;;21.50;99.90;;;;;;5033998;28;20096;-73
2023/09/24 11:43:01;;;;;;;1999.90;999.90;;;21.80;99.90;;;;;;5048031;28;20025;-75
2023/09/24 11:45:43;;;;;;;1999.90;999.90;;;21.70;99.90;;;;;;5053370;28;20100;-77
2023/09/24 11:48:11;;;;;;;1999.90;999.90;;;21.90;99.90;;;;;;5053527;28;20017;-77
2023/09/24 11:50:38;;;;;;;1999.90;999.90;;;21.90;99.90;;;;;;5053543;28;20031;-77
2023/09/24 11:53:05;;;;;;;1999.90;999.90;;;22.20;99.90;;;;;;5052914;28;20025;-74
2023/09/24 11:55:30;;;;;;;1999.90;999.90;;;22.10;99.90;;;;;;5053110;28;20200;-75
2023/09/24 11:57:56;;;;;;;1999.90;999.90;;;22.00;99.90;;;;;;5053110;28;20491;-77
2023/09/24 12:00:22;;;;;;;1999.90;999.90;;;22.20;99.90;;;;;;5053012;28;20476;-77
2023/09/24 12:02:48;;;;;;;1999.90;999.90;;;22.30;99.90;;;;;;5053385;28;20424;-77